Auburn, Mississippi
Current Conditions -  °F | °C
As of 1:53 PM on Thursday 30 Oct 2014 (Local Time) from KMCB Reporting Station
Clear Clear  
Wind Chill: 72°   Ceiling: Unl
Heat Index: 72°   Visibility: 10mi
Dew Point: 36°   Wind: 3mph
Humidity: 27%   Direction: 10°N
Pressure: 30.07"   Gusts: NA
Location:  31.3682°N, 90.6714°W
Report Text: KMCB 301853Z AUTO 01003KT 10SM CLR 22/02 A3007 RMK AO2 SLP181 T02220022 PWINO $
Loading
Personal Weather Stations






























Interactive Weather Map New forecast layout! Learn more

10-Day Weather Forecast

Advertisements
Track Severe Weather on mobile